GMMXGMML

Guest
Details From GMMX - MENARA
To GMML - HASSAN I
Flight Number -
Tags generated
Created
Modified
Stats Distance 382 nm / 707 km
Max Altitude 35,000 ft / 10,668 m
Waypoints 4
Social Downloads 1
Likes 0
Share VATSIM

Download

Looking for another format? Having issues loading an existing format? Contact us
Advertisement - Login to hide

Notes

Basic altitude profile: - Ascent Rate: 2500ft/min - Ascent Speed: 250kts - Cruise Altitude: 35000ft - Cruise Speed: 420kts - Descent Rate: 1500ft/min - Descent Speed: 250kts Options: - Use NATs: yes - Use PACOTS: yes - Use low airways: yes - Use high airways: yes

Route

GMMX ADM UA600 SOLNA GMML

ID Type Via Altitude Latitude Longitude Leg Dist Tot Dist Heading (true) Name
O GMMX APT - 0 ft / 0 m 31.60692˚ -8.03627˚ - 0 nm - MENARA
ADM VOR - 35,000 ft / 10,668 m 30.32194˚ -9.38333˚ 103 nm 103 nm 222° / 222° AGADIR VOR-DME
SOLNA FIX UA600 (AWY-HI) 9,800 ft / 2,987 m 27.66667˚ -12.59528˚ 232 nm 335 nm 227° / 226° -
O GMML APT - 0 ft / 0 m 27.14365˚ -13.22540˚ 45 nm 381 nm 227° / 227° HASSAN I

Altitude Profile

Advertisement - Login to hide

Weather


0- 5 10 15 20 25 30 35+ Temperature / ° C

Clouds and Precipitation
Forecast for 2018-06-21 18:00 UTC. Updated 9 minutes ago

Ground ~20,000 ft ~40,000 ft Winds

GMMX

Details ICAO GMMX (RAK)
Name MENARA
Region Morocco
Timezone Africa/Casablanca (UTC+1.0)
Stats Elevation 1,545 ft / 471 m (AMSL)
Location 31.606920° -8.036265°
Runways 1
Magnetic Variation 1.942° W

METAR

GMMX 211530Z 36005KT 300V110 9999 SCT023 27/14 Q1016 NOSIG

Decode

TAF

TAF GMMX 211100Z 2112/2218 28004KT 8000 BKN016 TEMPO 2115/2218 SCT023 FEW030TCU TEMPO 2118/2200 34012KT

Decode

Departure Runways

ID Width Length Bearing (true) Bearing (mag) Surface Threshold Offset Overrun Length
10 148 ft / 45 m 10,169 ft / 3,100 m 95.99° 97.93° Asphalt 918 ft / 280 m 0 ft / 0 m
28 148 ft / 45 m 10,169 ft / 3,100 m 276.00° 277.94° Asphalt 0 ft / 0 m 0 ft / 0 m

GMML

Details ICAO GMML (EUN)
Name HASSAN I
Region Morocco
Timezone Africa/El_Aaiun (UTC+1.0)
Stats Elevation 207 ft / 63 m (AMSL)
Location 27.143650° -13.225399°
Runways 2
Magnetic Variation 3.899° W

METAR

GMML 211500Z 02018KT CAVOK 27/14 Q1017 NOSIG

Decode

TAF

TAF GMML 211100Z 2112/2218 02014KT 9999 BKN023 BECMG 2112/2114 NSC BECMG 2121/2124 OVC020 BECMG 2212/2214 NSC

Decode

Destination Runways

ID Width Length Bearing (true) Bearing (mag) Surface Threshold Offset Overrun Length
02 148 ft / 45 m 8,890 ft / 2,710 m 16.42° 20.32° Asphalt 0 ft / 0 m 200 ft / 61 m
04 148 ft / 45 m 8,221 ft / 2,506 m 31.58° 35.48° Asphalt 0 ft / 0 m 0 ft / 0 m
20 148 ft / 45 m 8,890 ft / 2,710 m 196.43° 200.33° Asphalt 0 ft / 0 m 200 ft / 61 m
22 148 ft / 45 m 8,221 ft / 2,506 m 211.59° 215.49° Asphalt 0 ft / 0 m 658 ft / 201 m

Popular Alternatives